Time;durP1;ratioP1;P1;durP2;ratioP2;P2;SDS_P1;SDS_P2;PMS_P1;PMS_P2;Temp;Humidity;BMP_temperature;BMP_pressure;BME280_temperature;BME280_humidity;BME280_pressure;Samples;Min_cycle;Max_cycle;Signal;HPM_P1;HPM_P2
2021/03/19 00:01:47;;;;;;;17.42;11.27;;;;;;;;;;5013268;28;20033;-56
2021/03/19 00:04:13;;;;;;;17.48;11.10;;;;;;;;;;5012801;28;20045;-55
2021/03/19 00:06:40;;;;;;;18.63;11.45;;;;;;;;;;5013271;28;20112;-61
2021/03/19 00:09:07;;;;;;;21.75;11.63;;;;;;;;;;5013232;28;20029;-58
2021/03/19 00:11:34;;;;;;;19.05;11.98;;;;;;;;;;5012698;28;20343;-55
2021/03/19 00:14:00;;;;;;;20.23;11.75;;;;;;;;;;5013058;28;20037;-60
2021/03/19 00:16:27;;;;;;;19.10;11.15;;;;;;;;;;5012825;28;20025;-59
2021/03/19 00:18:53;;;;;;;21.80;12.02;;;;;;;;;;5012932;28;20372;-55
2021/03/19 00:21:19;;;;;;;18.90;11.10;;;;;;;;;;5012904;28;20026;-55
2021/03/19 00:23:45;;;;;;;18.00;10.95;;;;;;;;;;5012982;28;20030;-60
2021/03/19 00:26:11;;;;;;;18.75;10.77;;;;;;;;;;5012750;28;20076;-53
2021/03/19 00:28:37;;;;;;;20.85;11.90;;;;;;;;;;5012916;28;20057;-60
2021/03/19 00:31:03;;;;;;;19.13;11.15;;;;;;;;;;5012790;28;20030;-60
2021/03/19 00:33:29;;;;;;;19.13;10.13;;;;;;;;;;5012520;28;20532;-59
2021/03/19 00:35:55;;;;;;;16.50;10.43;;;;;;;;;;5012792;28;20050;-57
2021/03/19 00:38:22;;;;;;;18.98;10.48;;;;;;;;;;5012572;28;20061;-57
2021/03/19 00:40:48;;;;;;;17.58;10.48;;;;;;;;;;5011841;28;20054;-54
2021/03/19 00:43:15;;;;;;;16.67;10.15;;;;;;;;;;5011751;28;20505;-58
2021/03/19 00:45:41;;;;;;;15.45;9.82;;;;;;;;;;5012421;28;20446;-60
2021/03/19 00:48:07;;;;;;;15.77;9.68;;;;;;;;;;5012554;28;20022;-59
2021/03/19 00:50:35;;;;;;;16.33;9.90;;;;;;;;;;5012900;28;20092;-61
2021/03/19 00:53:02;;;;;;;18.58;10.48;;;;;;;;;;5012681;28;20037;-55
2021/03/19 00:55:28;;;;;;;19.10;10.30;;;;;;;;;;5012424;28;20026;-53
2021/03/19 00:57:54;;;;;;;16.23;9.45;;;;;;;;;;5012175;28;20087;-61
2021/03/19 01:00:21;;;;;;;16.70;10.18;;;;;;;;;;5012452;28;20036;-59
2021/03/19 01:02:47;;;;;;;19.80;10.63;;;;;;;;;;5012229;28;20018;-54
2021/03/19 01:05:18;;;;;;;17.42;9.98;;;;;;;;;;5012406;28;20382;-54
2021/03/19 01:07:44;;;;;;;16.83;9.52;;;;;;;;;;5012289;28;20033;-61
2021/03/19 01:10:16;;;;;;;16.15;9.68;;;;;;;;;;5012400;28;20030;-57
2021/03/19 01:12:42;;;;;;;16.85;9.55;;;;;;;;;;5012206;28;20080;-58
2021/03/19 01:15:09;;;;;;;16.38;9.18;;;;;;;;;;5012472;28;20373;-54
2021/03/19 01:17:35;;;;;;;17.35;9.93;;;;;;;;;;5012409;28;20357;-53
2021/03/19 01:20:02;;;;;;;16.38;9.38;;;;;;;;;;5012122;28;20467;-55
2021/03/19 01:22:29;;;;;;;16.55;9.45;;;;;;;;;;5012409;28;20349;-54
2021/03/19 01:24:55;;;;;;;16.50;9.88;;;;;;;;;;5012218;28;20026;-57
2021/03/19 01:27:21;;;;;;;17.25;10.65;;;;;;;;;;5012162;28;20029;-56
2021/03/19 01:29:47;;;;;;;16.38;9.95;;;;;;;;;;5012011;28;20029;-58
2021/03/19 01:32:14;;;;;;;17.73;10.65;;;;;;;;;;5012210;28;20521;-59
2021/03/19 01:34:40;;;;;;;16.23;10.02;;;;;;;;;;5012007;28;20018;-49
2021/03/19 01:37:06;;;;;;;15.48;9.55;;;;;;;;;;5012014;28;20029;-54
2021/03/19 01:39:32;;;;;;;16.65;10.05;;;;;;;;;;5012295;28;20046;-53
2021/03/19 01:41:58;;;;;;;16.38;10.00;;;;;;;;;;5011653;28;20112;-52
2021/03/19 01:44:43;;;;;;;17.63;10.27;;;;;;;;;;5012023;28;20018;-54
2021/03/19 01:47:28;;;;;;;16.67;10.77;;;;;;;;;;5011993;28;20409;-58
2021/03/19 01:50:14;;;;;;;19.90;10.45;;;;;;;;;;5011903;28;20029;-58
2021/03/19 01:52:59;;;;;;;15.85;10.25;;;;;;;;;;5012205;28;20022;-56
2021/03/19 01:55:44;;;;;;;17.33;10.02;;;;;;;;;;5011854;28;20018;-60
2021/03/19 01:58:28;;;;;;;17.20;10.18;;;;;;;;;;5011876;28;20037;-57
2021/03/19 02:01:13;;;;;;;18.58;10.15;;;;;;;;;;5013433;28;20025;-51
2021/03/19 02:03:58;;;;;;;16.60;10.27;;;;;;;;;;5015235;28;20061;-52
2021/03/19 02:06:42;;;;;;;18.25;10.90;;;;;;;;;;5015385;28;20453;-53
2021/03/19 02:09:27;;;;;;;16.67;10.15;;;;;;;;;;5015252;28;20112;-54
2021/03/19 02:12:12;;;;;;;17.52;10.50;;;;;;;;;;5014922;28;20030;-61
2021/03/19 02:14:56;;;;;;;17.83;10.55;;;;;;;;;;5015434;28;20153;-53
2021/03/19 02:17:41;;;;;;;17.20;10.73;;;;;;;;;;5015160;28;20041;-56
2021/03/19 02:20:25;;;;;;;16.10;10.13;;;;;;;;;;5014958;28;20120;-48
2021/03/19 02:23:10;;;;;;;19.00;9.90;;;;;;;;;;5015758;28;20018;-53
2021/03/19 02:25:54;;;;;;;18.13;9.93;;;;;;;;;;5015062;28;20113;-57
2021/03/19 02:28:39;;;;;;;16.67;10.43;;;;;;;;;;5015037;28;20112;-55
2021/03/19 02:31:14;;;;;;;17.52;10.10;;;;;;;;;;5015143;28;20022;-54
2021/03/19 02:33:58;;;;;;;16.58;10.15;;;;;;;;;;5015511;28;20466;-58
2021/03/19 02:36:25;;;;;;;16.65;10.18;;;;;;;;;;5014864;28;20022;-59
2021/03/19 02:38:52;;;;;;;15.77;9.55;;;;;;;;;;5014693;28;20034;-57
2021/03/19 02:41:18;;;;;;;17.00;10.63;;;;;;;;;;5014823;28;20036;-59
2021/03/19 02:46:14;;;;;;;14.68;9.02;;;;;;;;;;4992875;28;20129;-54
2021/03/19 02:48:40;;;;;;;18.65;10.90;;;;;;;;;;4994266;28;20023;-53
2021/03/19 02:51:07;;;;;;;15.27;9.68;;;;;;;;;;4994363;28;20065;-56
2021/03/19 02:53:34;;;;;;;17.40;10.40;;;;;;;;;;4994337;28;20457;-53
2021/03/19 02:56:01;;;;;;;17.35;10.27;;;;;;;;;;4994135;28;20065;-52
2021/03/19 02:58:27;;;;;;;17.67;10.52;;;;;;;;;;4993983;28;20555;-56
2021/03/19 03:00:54;;;;;;;16.02;9.65;;;;;;;;;;4993954;28;20026;-57
2021/03/19 03:03:20;;;;;;;16.65;10.48;;;;;;;;;;4993970;28;20033;-58
2021/03/19 03:05:46;;;;;;;19.08;10.80;;;;;;;;;;4993947;28;20037;-54
2021/03/19 03:08:13;;;;;;;14.85;9.27;;;;;;;;;;4993883;28;20101;-58
2021/03/19 03:10:40;;;;;;;17.92;10.50;;;;;;;;;;4993844;28;20046;-52
2021/03/19 03:13:07;;;;;;;21.52;10.38;;;;;;;;;;4992846;28;20050;-56
2021/03/19 03:15:34;;;;;;;18.08;10.90;;;;;;;;;;4993594;28;20022;-60
2021/03/19 03:18:00;;;;;;;18.33;10.93;;;;;;;;;;4993564;28;20034;-51
2021/03/19 03:20:29;;;;;;;18.73;10.27;;;;;;;;;;4993620;28;20166;-58
2021/03/19 03:22:55;;;;;;;16.98;10.20;;;;;;;;;;4993556;28;20022;-52
2021/03/19 03:25:22;;;;;;;18.48;11.77;;;;;;;;;;4993455;28;20489;-56
2021/03/19 03:27:49;;;;;;;18.98;10.80;;;;;;;;;;4993503;28;20026;-58
2021/03/19 03:30:17;;;;;;;18.17;10.48;;;;;;;;;;4993327;28;20354;-60
2021/03/19 03:32:44;;;;;;;19.55;10.70;;;;;;;;;;4993375;28;20037;-55
2021/03/19 03:35:11;;;;;;;19.60;11.57;;;;;;;;;;4993504;28;20029;-61
2021/03/19 03:37:37;;;;;;;19.67;12.45;;;;;;;;;;4993372;28;20034;-55
2021/03/19 03:40:06;;;;;;;20.20;11.93;;;;;;;;;;4993251;28;20101;-57
2021/03/19 03:42:32;;;;;;;18.73;10.60;;;;;;;;;;4993175;28;20113;-55
2021/03/19 03:44:58;;;;;;;20.40;11.95;;;;;;;;;;4992800;28;20049;-54
2021/03/19 03:47:24;;;;;;;18.98;12.20;;;;;;;;;;4993116;28;20026;-58
2021/03/19 03:49:50;;;;;;;18.08;11.25;;;;;;;;;;4993073;28;20027;-53
2021/03/19 03:52:16;;;;;;;19.77;11.45;;;;;;;;;;4992977;28;20050;-60
2021/03/19 03:54:42;;;;;;;20.30;11.45;;;;;;;;;;4992996;28;20097;-61
2021/03/19 03:57:08;;;;;;;20.02;11.90;;;;;;;;;;4993009;28;20026;-56
2021/03/19 03:59:34;;;;;;;18.42;11.00;;;;;;;;;;4992903;28;20053;-56
2021/03/19 04:02:14;;;;;;;20.42;11.27;;;;;;;;;;4992578;28;20026;-51
2021/03/19 04:04:40;;;;;;;20.38;12.18;;;;;;;;;;4992952;28;20070;-58
2021/03/19 04:07:06;;;;;;;17.67;10.18;;;;;;;;;;4992750;28;20041;-62
2021/03/19 04:09:32;;;;;;;20.48;12.02;;;;;;;;;;4992972;28;20062;-56
2021/03/19 04:11:59;;;;;;;17.38;10.70;;;;;;;;;;4992698;28;20022;-59
2021/03/19 04:14:25;;;;;;;17.13;9.93;;;;;;;;;;4992930;28;20101;-59
2021/03/19 04:16:51;;;;;;;18.80;11.02;;;;;;;;;;4992432;28;20023;-51
2021/03/19 04:19:17;;;;;;;18.00;10.27;;;;;;;;;;4992392;28;20124;-53
2021/03/19 04:21:43;;;;;;;19.75;11.15;;;;;;;;;;4992670;28;20025;-59
2021/03/19 04:24:09;;;;;;;17.40;10.23;;;;;;;;;;4992274;28;20172;-52
2021/03/19 04:26:36;;;;;;;20.65;11.07;;;;;;;;;;4992462;28;20129;-54
2021/03/19 04:29:03;;;;;;;23.38;13.23;;;;;;;;;;4992413;28;20374;-57
2021/03/19 04:31:29;;;;;;;22.35;12.68;;;;;;;;;;4992154;28;20036;-56
2021/03/19 04:33:55;;;;;;;21.98;12.02;;;;;;;;;;4992394;28;20090;-54
2021/03/19 04:36:29;;;;;;;22.50;12.60;;;;;;;;;;4992393;28;20141;-60
2021/03/19 04:38:55;;;;;;;;;;;;;;;;;;4992687;28;20034;-55
2021/03/19 04:41:21;;;;;;;20.70;12.00;;;;;;;;;;4992237;28;19905;-56
2021/03/19 04:43:47;;;;;;;21.98;11.85;;;;;;;;;;4992332;28;20044;-48
2021/03/19 04:46:13;;;;;;;21.20;12.00;;;;;;;;;;4992052;28;20077;-57
2021/03/19 04:48:39;;;;;;;22.38;12.30;;;;;;;;;;4974739;28;20358;-56
2021/03/19 04:51:06;;;;;;;27.00;14.27;;;;;;;;;;4992233;28;20031;-62
2021/03/19 04:53:32;;;;;;;27.13;12.30;;;;;;;;;;4992216;28;20022;-52
2021/03/19 04:55:58;;;;;;;26.50;13.25;;;;;;;;;;4992129;28;20373;-56
2021/03/19 04:58:24;;;;;;;28.75;13.68;;;;;;;;;;4992060;28;20073;-59
2021/03/19 05:00:50;;;;;;;28.52;14.00;;;;;;;;;;4992169;28;20026;-55
2021/03/19 05:03:16;;;;;;;27.25;12.75;;;;;;;;;;4991989;28;20030;-56
2021/03/19 05:05:42;;;;;;;34.22;13.95;;;;;;;;;;4992247;28;20382;-54
2021/03/19 05:08:08;;;;;;;32.10;15.23;;;;;;;;;;4974620;28;20023;-57
2021/03/19 05:10:35;;;;;;;27.88;13.07;;;;;;;;;;4992049;28;20022;-56
2021/03/19 05:13:02;;;;;;;28.85;14.32;;;;;;;;;;4991967;28;20038;-59
2021/03/19 05:15:29;;;;;;;27.95;12.85;;;;;;;;;;4991996;28;20026;-53
2021/03/19 05:17:55;;;;;;;28.58;13.07;;;;;;;;;;4991791;28;20093;-58
2021/03/19 05:20:22;;;;;;;25.67;12.52;;;;;;;;;;4991961;28;20022;-57
2021/03/19 05:22:48;;;;;;;22.73;12.70;;;;;;;;;;4991906;28;20029;-53
2021/03/19 05:25:15;;;;;;;20.38;11.90;;;;;;;;;;4992052;28;20034;-55
2021/03/19 05:27:42;;;;;;;23.20;13.27;;;;;;;;;;4991917;28;20552;-55
2021/03/19 05:30:09;;;;;;;21.38;12.52;;;;;;;;;;4991812;28;20038;-56
2021/03/19 05:32:35;;;;;;;22.60;12.70;;;;;;;;;;4991710;28;20377;-55
2021/03/19 05:35:01;;;;;;;24.38;13.02;;;;;;;;;;4974563;28;20026;-55
2021/03/19 05:37:27;;;;;;;27.58;14.93;;;;;;;;;;4995750;28;20512;-54
2021/03/19 05:39:53;;;;;;;23.65;13.73;;;;;;;;;;4995532;28;20034;-54
2021/03/19 05:42:25;;;;;;;36.00;17.70;;;;;;;;;;4995485;28;20020;-53
2021/03/19 05:44:55;;;;;;;53.60;22.98;;;;;;;;;;4995424;28;20121;-55
2021/03/19 05:47:21;;;;;;;51.45;21.95;;;;;;;;;;4995160;28;20034;-54
2021/03/19 05:49:51;;;;;;;51.20;23.60;;;;;;;;;;4995464;28;20097;-59
2021/03/19 05:52:24;;;;;;;36.88;18.77;;;;;;;;;;4995408;28;20058;-57
2021/03/19 05:54:50;;;;;;;34.20;18.33;;;;;;;;;;4995202;28;20093;-52
2021/03/19 05:57:22;;;;;;;32.05;17.98;;;;;;;;;;4995769;28;20042;-57
2021/03/19 05:59:49;;;;;;;25.23;15.20;;;;;;;;;;4995947;28;20105;-58
2021/03/19 06:02:37;;;;;;;22.45;12.85;;;;;;;;;;5013379;28;20444;-56
2021/03/19 06:05:15;;;;;;;19.60;12.13;;;;;;;;;;5015357;28;20026;-60
2021/03/19 06:07:57;;;;;;;24.45;13.70;;;;;;;;;;5005123;28;20105;-60
2021/03/19 06:10:23;;;;;;;21.63;13.13;;;;;;;;;;4995940;28;20038;-56
2021/03/19 06:12:51;;;;;;;21.92;12.50;;;;;;;;;;4995847;28;20024;-56
2021/03/19 06:15:23;;;;;;;22.20;13.07;;;;;;;;;;4995794;28;20026;-54
2021/03/19 06:17:50;;;;;;;25.50;13.82;;;;;;;;;;4995391;28;20504;-52
2021/03/19 06:20:18;;;;;;;25.30;15.35;;;;;;;;;;4995647;28;20027;-57
2021/03/19 06:22:47;;;;;;;26.77;14.73;;;;;;;;;;4995363;28;20023;-56
2021/03/19 06:25:19;;;;;;;23.15;12.73;;;;;;;;;;4977994;28;20391;-58
2021/03/19 06:28:04;;;;;;;23.75;12.77;;;;;;;;;;4995314;28;20457;-59
2021/03/19 06:30:33;;;;;;;20.55;12.65;;;;;;;;;;4995287;28;20476;-58
2021/03/19 06:33:20;;;;;;;22.40;13.73;;;;;;;;;;4986076;28;20034;-60
2021/03/19 06:36:06;;;;;;;24.02;14.45;;;;;;;;;;4994183;28;20072;-61
2021/03/19 06:38:34;;;;;;;21.90;11.80;;;;;;;;;;4987120;28;20049;-55
2021/03/19 06:41:18;;;;;;;20.13;11.55;;;;;;;;;;4991153;28;20342;-61
2021/03/19 06:43:45;;;;;;;22.50;12.52;;;;;;;;;;4991079;28;20050;-54
2021/03/19 06:46:14;;;;;;;23.02;12.95;;;;;;;;;;4988614;28;20397;-58
2021/03/19 06:48:42;;;;;;;21.42;11.82;;;;;;;;;;4990112;28;20084;-58
2021/03/19 06:51:12;;;;;;;19.52;12.10;;;;;;;;;;4993996;28;20030;-56
2021/03/19 06:53:38;;;;;;;19.33;11.60;;;;;;;;;;4994912;28;20029;-58
2021/03/19 06:56:15;;;;;;;21.42;12.10;;;;;;;;;;4994447;28;20034;-49
2021/03/19 06:58:45;;;;;;;26.55;14.27;;;;;;;;;;4993797;28;20041;-58
2021/03/19 07:01:23;;;;;;;23.92;12.52;;;;;;;;;;4993720;28;20028;-57
2021/03/19 07:03:53;;;;;;;20.17;12.85;;;;;;;;;;4992086;28;20461;-52
2021/03/19 07:06:31;;;;;;;23.38;13.32;;;;;;;;;;4988385;28;20026;-54
2021/03/19 07:08:57;;;;;;;26.15;14.55;;;;;;;;;;4991084;28;20037;-52
2021/03/19 07:11:32;;;;;;;25.90;13.95;;;;;;;;;;5000329;28;20050;-54
2021/03/19 07:14:20;;;;;;;26.27;14.00;;;;;;;;;;5003712;28;20488;-55
2021/03/19 07:17:05;;;;;;;24.83;13.60;;;;;;;;;;5013046;28;20165;-59
2021/03/19 07:19:55;;;;;;;23.95;12.57;;;;;;;;;;5013031;28;20038;-53
2021/03/19 07:22:28;;;;;;;18.23;10.48;;;;;;;;;;5013312;28;20129;-57
2021/03/19 07:25:00;;;;;;;19.27;12.35;;;;;;;;;;5013041;28;20025;-61
2021/03/19 07:27:33;;;;;;;21.00;12.27;;;;;;;;;;5013114;28;20030;-56
2021/03/19 07:30:11;;;;;;;17.65;10.27;;;;;;;;;;5013505;28;20034;-57
2021/03/19 07:32:45;;;;;;;17.90;11.75;;;;;;;;;;5002133;28;20026;-57
2021/03/19 07:35:11;;;;;;;17.33;10.52;;;;;;;;;;4993241;28;20088;-55
2021/03/19 07:37:51;;;;;;;19.63;11.38;;;;;;;;;;4993359;28;20030;-56
2021/03/19 07:40:23;;;;;;;18.33;10.80;;;;;;;;;;4993481;28;20031;-60
2021/03/19 07:42:50;;;;;;;18.05;11.63;;;;;;;;;;4993368;28;20034;-55
2021/03/19 07:45:38;;;;;;;18.92;11.48;;;;;;;;;;4993292;28;20050;-60
2021/03/19 07:48:23;;;;;;;14.43;8.98;;;;;;;;;;5003654;28;20117;-58
2021/03/19 07:51:08;;;;;;;16.48;10.00;;;;;;;;;;4993099;28;20065;-58
2021/03/19 07:53:46;;;;;;;17.48;10.27;;;;;;;;;;4988574;28;20105;-58
2021/03/19 07:56:18;;;;;;;14.77;9.20;;;;;;;;;;4992592;28;20046;-52
2021/03/19 07:58:54;;;;;;;15.18;9.15;;;;;;;;;;4990941;28;20034;-56
2021/03/19 08:01:38;;;;;;;13.52;8.77;;;;;;;;;;4993219;28;20497;-55
2021/03/19 08:04:07;;;;;;;14.02;8.70;;;;;;;;;;4992943;28;20102;-57
2021/03/19 08:06:35;;;;;;;15.75;8.70;;;;;;;;;;4993168;28;20022;-60
2021/03/19 08:09:04;;;;;;;13.80;9.10;;;;;;;;;;4993054;28;20450;-58
2021/03/19 08:11:46;;;;;;;13.38;7.97;;;;;;;;;;4992743;28;20113;-56
2021/03/19 08:14:31;;;;;;;13.25;8.10;;;;;;;;;;4992657;28;20350;-60
2021/03/19 08:17:07;;;;;;;15.38;8.63;;;;;;;;;;4992689;28;20034;-55
2021/03/19 08:19:34;;;;;;;12.02;7.85;;;;;;;;;;4992602;28;20061;-61
2021/03/19 08:22:06;;;;;;;11.38;7.82;;;;;;;;;;4992971;28;20066;-61
2021/03/19 08:24:50;;;;;;;12.57;8.32;;;;;;;;;;4992527;28;20046;-57
2021/03/19 08:27:20;;;;;;;15.30;8.00;;;;;;;;;;4992203;28;20058;-49
2021/03/19 08:29:59;;;;;;;13.18;7.75;;;;;;;;;;4992746;28;20026;-55
2021/03/19 08:32:25;;;;;;;13.48;8.25;;;;;;;;;;4992318;28;20037;-58
2021/03/19 08:35:03;;;;;;;12.52;7.95;;;;;;;;;;4993064;28;20022;-59
2021/03/19 08:37:47;;;;;;;14.15;7.70;;;;;;;;;;4992590;28;20353;-57
2021/03/19 08:40:28;;;;;;;12.10;7.65;;;;;;;;;;4992896;28;20030;-53
2021/03/19 08:42:55;;;;;;;12.32;8.30;;;;;;;;;;4992730;28;20466;-56
2021/03/19 08:45:24;;;;;;;13.80;7.82;;;;;;;;;;4985689;28;20470;-57
2021/03/19 08:47:53;;;;;;;13.55;7.82;;;;;;;;;;4992196;28;20028;-63
2021/03/19 08:50:33;;;;;;;11.07;7.32;;;;;;;;;;4992735;28;20061;-60
2021/03/19 08:53:13;;;;;;;11.57;7.80;;;;;;;;;;4991732;28;20034;-57
2021/03/19 08:55:41;;;;;;;10.18;5.97;;;;;;;;;;4992014;28;20069;-58
2021/03/19 08:58:25;;;;;;;10.32;6.30;;;;;;;;;;4991865;28;20053;-54
2021/03/19 09:00:55;;;;;;;12.25;7.78;;;;;;;;;;5002090;28;20023;-57
2021/03/19 09:03:40;;;;;;;13.48;8.02;;;;;;;;;;4992477;28;20026;-60
2021/03/19 09:06:07;;;;;;;11.68;6.85;;;;;;;;;;4992237;28;20033;-58
2021/03/19 09:08:52;;;;;;;9.73;6.13;;;;;;;;;;4992543;28;20121;-54
2021/03/19 09:11:25;;;;;;;8.38;4.82;;;;;;;;;;4996519;28;20022;-53
2021/03/19 09:14:00;;;;;;;11.13;6.78;;;;;;;;;;4997045;28;20022;-51
2021/03/19 09:16:45;;;;;;;10.93;6.90;;;;;;;;;;4996366;28;20473;-52
2021/03/19 09:19:29;;;;;;;9.75;6.10;;;;;;;;;;4999257;28;20069;-57
2021/03/19 09:22:14;;;;;;;12.13;7.13;;;;;;;;;;5008232;28;20449;-53
2021/03/19 09:24:40;;;;;;;11.05;7.35;;;;;;;;;;5004719;28;20034;-52
2021/03/19 09:27:24;;;;;;;10.38;6.60;;;;;;;;;;5001673;28;20053;-53
2021/03/19 09:29:50;;;;;;;10.85;6.63;;;;;;;;;;4993790;28;20077;-56
2021/03/19 09:32:26;;;;;;;10.43;6.07;;;;;;;;;;5002058;28;20443;-53
2021/03/19 09:34:52;;;;;;;9.52;5.78;;;;;;;;;;4995032;28;20165;-52
2021/03/19 09:37:37;;;;;;;7.68;4.80;;;;;;;;;;4999407;28;20437;-62
2021/03/19 09:40:03;;;;;;;9.35;4.93;;;;;;;;;;4999366;28;20049;-57
2021/03/19 09:42:29;;;;;;;14.90;8.68;;;;;;;;;;5002238;28;20037;-48
2021/03/19 09:45:02;;;;;;;13.80;7.20;;;;;;;;;;5003607;28;20053;-53
2021/03/19 09:47:33;;;;;;;9.18;5.63;;;;;;;;;;5006346;28;20471;-58
2021/03/19 09:50:10;;;;;;;11.27;6.47;;;;;;;;;;5001838;28;20087;-56
2021/03/19 09:52:37;;;;;;;10.45;6.65;;;;;;;;;;4998683;28;20023;-56
2021/03/19 09:55:15;;;;;;;12.02;7.82;;;;;;;;;;5002031;28;20049;-58
2021/03/19 09:57:41;;;;;;;9.18;5.32;;;;;;;;;;4998917;28;20501;-56
2021/03/19 10:00:19;;;;;;;8.98;5.80;;;;;;;;;;5005049;28;20026;-52
2021/03/19 10:02:46;;;;;;;10.00;6.00;;;;;;;;;;4988911;28;20022;-55
2021/03/19 10:05:23;;;;;;;9.93;6.28;;;;;;;;;;4998004;28;20018;-61
2021/03/19 10:07:57;;;;;;;10.15;6.15;;;;;;;;;;5003435;28;20072;-59
2021/03/19 10:10:23;;;;;;;9.13;6.13;;;;;;;;;;4995247;28;20046;-52
2021/03/19 10:12:50;;;;;;;15.68;7.53;;;;;;;;;;4995454;28;20342;-55
2021/03/19 10:15:18;;;;;;;14.70;8.63;;;;;;;;;;4994985;28;20026;-54
2021/03/19 10:17:51;;;;;;;12.30;7.22;;;;;;;;;;4995304;28;20034;-56
2021/03/19 10:20:23;;;;;;;10.70;6.70;;;;;;;;;;4994069;28;20026;-52
2021/03/19 10:22:51;;;;;;;11.38;6.65;;;;;;;;;;4992940;28;20350;-57
2021/03/19 10:25:25;;;;;;;9.30;5.78;;;;;;;;;;4992668;28;20382;-51
2021/03/19 10:27:54;;;;;;;8.38;5.07;;;;;;;;;;4994521;28;20023;-55
2021/03/19 10:30:26;;;;;;;11.48;6.97;;;;;;;;;;4994587;28;20029;-56
2021/03/19 10:32:53;;;;;;;13.50;7.57;;;;;;;;;;4994861;28;20559;-55
2021/03/19 10:35:21;;;;;;;12.82;6.85;;;;;;;;;;4994795;28;20038;-56
2021/03/19 10:37:52;;;;;;;12.02;7.07;;;;;;;;;;4994632;28;20141;-54
2021/03/19 10:40:25;;;;;;;15.23;8.32;;;;;;;;;;4994758;28;20105;-53
2021/03/19 10:42:51;;;;;;;;;;;;;;;;;;4994911;28;20058;-52
2021/03/19 10:45:17;;;;;;;8.52;5.22;;;;;;;;;;4994576;28;19957;-53
2021/03/19 10:48:01;;;;;;;8.15;5.20;;;;;;;;;;4994757;28;20470;-53
2021/03/19 10:50:31;;;;;;;8.70;5.50;;;;;;;;;;4994286;28;20518;-55
2021/03/19 10:53:06;;;;;;;13.02;7.38;;;;;;;;;;4994175;28;20073;-59
2021/03/19 10:55:35;;;;;;;9.27;5.57;;;;;;;;;;4994466;28;20069;-53
2021/03/19 10:58:27;;;;;;;9.23;5.55;;;;;;;;;;4993924;28;20030;-58
2021/03/19 11:00:54;;;;;;;6.80;4.38;;;;;;;;;;4992512;28;20034;-50
2021/03/19 11:03:32;;;;;;;8.93;5.57;;;;;;;;;;4994077;28;20114;-51
2021/03/19 11:06:03;;;;;;;10.65;6.63;;;;;;;;;;4994695;28;20030;-54
2021/03/19 11:08:29;;;;;;;12.25;7.60;;;;;;;;;;4994037;28;20026;-53
2021/03/19 11:10:56;;;;;;;16.20;8.25;;;;;;;;;;4994636;28;20026;-49
2021/03/19 11:13:22;;;;;;;8.10;4.97;;;;;;;;;;4994726;28;20018;-51
2021/03/19 11:15:52;;;;;;;6.85;4.35;;;;;;;;;;4994474;28;20081;-58
2021/03/19 11:18:19;;;;;;;7.50;4.78;;;;;;;;;;4994366;28;20529;-54
2021/03/19 11:20:47;;;;;;;7.25;4.65;;;;;;;;;;4994747;28;20026;-59
2021/03/19 11:23:25;;;;;;;15.02;7.75;;;;;;;;;;4994253;28;20127;-50
2021/03/19 11:25:53;;;;;;;11.02;7.30;;;;;;;;;;4994384;28;20134;-47
2021/03/19 11:28:25;;;;;;;10.95;6.78;;;;;;;;;;4994385;28;20081;-55
2021/03/19 11:30:51;;;;;;;8.93;4.70;;;;;;;;;;4994022;28;20081;-54
2021/03/19 11:33:19;;;;;;;7.80;5.15;;;;;;;;;;4993554;28;20018;-52
2021/03/19 11:36:24;;;;;;;16.25;8.05;;;;;;;;;;4994385;28;20073;-51
2021/03/19 11:38:51;;;;;;;12.40;6.88;;;;;;;;;;4952909;29;20386;-53
2021/03/19 11:41:29;;;;;;;10.77;5.57;;;;;;;;;;4953124;29;20035;-51
2021/03/19 11:43:56;;;;;;;7.50;4.80;;;;;;;;;;4975882;28;20030;-61
2021/03/19 11:46:22;;;;;;;9.32;5.95;;;;;;;;;;4994043;28;20030;-56
2021/03/19 11:48:49;;;;;;;7.20;4.60;;;;;;;;;;4994250;28;20345;-54
2021/03/19 11:51:23;;;;;;;7.03;4.30;;;;;;;;;;4993937;28;20026;-51
2021/03/19 11:54:00;;;;;;;7.28;4.75;;;;;;;;;;5110255;27;20349;-47
2021/03/19 11:56:29;;;;;;;9.32;4.50;;;;;;;;;;5110355;28;20034;-51
2021/03/19 11:58:55;;;;;;;7.18;4.50;;;;;;;;;;5110554;28;20024;-57
2021/03/19 12:01:21;;;;;;;7.55;4.50;;;;;;;;;;5109905;28;20425;-56
2021/03/19 12:03:51;;;;;;;8.65;4.40;;;;;;;;;;5110263;28;20018;-49
2021/03/19 12:06:20;;;;;;;7.38;4.40;;;;;;;;;;5109996;28;20024;-55
2021/03/19 12:08:46;;;;;;;8.35;5.07;;;;;;;;;;5110242;28;20024;-51
2021/03/19 12:11:35;;;;;;;6.45;4.03;;;;;;;;;;5109748;28;20020;-57
2021/03/19 12:14:01;;;;;;;7.70;4.10;;;;;;;;;;5109963;28;20024;-53
2021/03/19 12:16:27;;;;;;;6.72;4.10;;;;;;;;;;5110356;28;20056;-49
2021/03/19 12:18:55;;;;;;;7.95;4.35;;;;;;;;;;5109907;28;20036;-53
2021/03/19 12:21:21;;;;;;;7.68;4.88;;;;;;;;;;5109728;28;20036;-52
2021/03/19 12:23:48;;;;;;;7.75;5.10;;;;;;;;;;5109662;28;20103;-49
2021/03/19 12:26:14;;;;;;;11.10;6.93;;;;;;;;;;5109579;28;20370;-52
2021/03/19 12:28:40;;;;;;;9.48;5.40;;;;;;;;;;5108692;28;20467;-53
2021/03/19 12:31:07;;;;;;;8.63;5.35;;;;;;;;;;5108809;28;20023;-50
2021/03/19 12:33:34;;;;;;;7.15;4.30;;;;;;;;;;5109436;28;20039;-53
2021/03/19 12:36:00;;;;;;;6.53;3.88;;;;;;;;;;5109854;28;20356;-55
2021/03/19 12:38:27;;;;;;;5.80;3.83;;;;;;;;;;5109516;28;20024;-55
2021/03/19 12:40:55;;;;;;;6.35;3.78;;;;;;;;;;5108027;28;20106;-51
2021/03/19 12:43:21;;;;;;;6.32;3.85;;;;;;;;;;5109569;28;20032;-53
2021/03/19 12:45:47;;;;;;;5.50;3.45;;;;;;;;;;5109389;28;20337;-50
2021/03/19 12:48:13;;;;;;;7.05;3.60;;;;;;;;;;5109437;28;20414;-53
2021/03/19 12:50:39;;;;;;;5.00;3.33;;;;;;;;;;5109321;28;20042;-50
2021/03/19 12:53:07;;;;;;;7.93;4.57;;;;;;;;;;5108832;28;20478;-52
2021/03/19 12:55:34;;;;;;;8.70;5.13;;;;;;;;;;5109094;28;20023;-53
2021/03/19 12:58:01;;;;;;;5.88;3.80;;;;;;;;;;5109436;28;20051;-57
2021/03/19 13:00:28;;;;;;;7.18;4.20;;;;;;;;;;5108827;28;20016;-51
2021/03/19 13:02:54;;;;;;;6.25;3.75;;;;;;;;;;5109007;28;20028;-47
2021/03/19 13:05:23;;;;;;;8.60;4.63;;;;;;;;;;5095187;28;20024;-54
2021/03/19 13:07:49;;;;;;;10.52;6.10;;;;;;;;;;5095186;28;20031;-57
2021/03/19 13:10:16;;;;;;;7.13;4.38;;;;;;;;;;5095162;28;20076;-58
2021/03/19 13:12:42;;;;;;;7.78;4.18;;;;;;;;;;5095206;28;20084;-58
2021/03/19 13:15:11;;;;;;;7.35;3.90;;;;;;;;;;5095155;28;20023;-52
2021/03/19 13:17:37;;;;;;;6.60;4.30;;;;;;;;;;5095102;28;20528;-56
2021/03/19 13:20:04;;;;;;;8.05;4.47;;;;;;;;;;5095156;28;20031;-52
2021/03/19 13:22:30;;;;;;;7.47;4.20;;;;;;;;;;5095251;28;20082;-61
2021/03/19 13:24:56;;;;;;;8.35;5.07;;;;;;;;;;5094945;28;20111;-56
2021/03/19 13:27:22;;;;;;;6.65;4.50;;;;;;;;;;5094864;28;20421;-57
2021/03/19 13:29:48;;;;;;;7.38;4.47;;;;;;;;;;5094708;28;20073;-55
2021/03/19 13:32:14;;;;;;;7.53;4.30;;;;;;;;;;5094987;28;20412;-53
2021/03/19 13:34:41;;;;;;;6.88;4.18;;;;;;;;;;5094737;28;20039;-54
2021/03/19 13:37:07;;;;;;;8.32;4.90;;;;;;;;;;5094666;28;20020;-53
2021/03/19 13:39:35;;;;;;;7.75;4.22;;;;;;;;;;5094872;28;20024;-52
2021/03/19 13:42:06;;;;;;;8.00;4.30;;;;;;;;;;5094445;28;20028;-52
2021/03/19 13:44:32;;;;;;;7.15;4.10;;;;;;;;;;5094716;28;20108;-59
2021/03/19 13:47:01;;;;;;;7.50;3.78;;;;;;;;;;5094477;28;20033;-57
2021/03/19 13:49:27;;;;;;;7.47;3.83;;;;;;;;;;5094417;28;20498;-54
2021/03/19 13:51:53;;;;;;;6.93;4.18;;;;;;;;;;5094209;28;20139;-57
2021/03/19 13:54:19;;;;;;;7.88;4.53;;;;;;;;;;5094332;28;20081;-53
2021/03/19 13:56:45;;;;;;;7.43;4.22;;;;;;;;;;5094435;28;20089;-56
2021/03/19 13:59:11;;;;;;;8.05;3.95;;;;;;;;;;5094047;28;20042;-56
2021/03/19 14:01:37;;;;;;;7.25;4.60;;;;;;;;;;5094264;28;20069;-56
2021/03/19 14:04:08;;;;;;;10.75;5.18;;;;;;;;;;5094344;28;20035;-56
2021/03/19 14:06:37;;;;;;;14.48;7.93;;;;;;;;;;5094318;28;20015;-52
2021/03/19 14:09:05;;;;;;;10.38;4.70;;;;;;;;;;5094162;28;20469;-53
2021/03/19 14:11:31;;;;;;;9.38;4.70;;;;;;;;;;5094011;28;20024;-58
2021/03/19 14:13:57;;;;;;;14.07;6.78;;;;;;;;;;5093908;28;20082;-55
2021/03/19 14:16:23;;;;;;;16.45;9.75;;;;;;;;;;5092928;28;20476;-58
2021/03/19 14:18:49;;;;;;;7.32;4.57;;;;;;;;;;5093944;28;20024;-56
2021/03/19 14:21:15;;;;;;;9.60;4.82;;;;;;;;;;5093866;28;20024;-55
2021/03/19 14:23:41;;;;;;;8.52;5.40;;;;;;;;;;5093896;28;20097;-56
2021/03/19 14:26:08;;;;;;;8.07;4.90;;;;;;;;;;5093942;28;20034;-53
2021/03/19 14:28:36;;;;;;;9.57;5.32;;;;;;;;;;5093564;28;20028;-55
2021/03/19 14:31:02;;;;;;;8.10;4.50;;;;;;;;;;5093745;28;20024;-60
2021/03/19 14:33:28;;;;;;;11.82;5.40;;;;;;;;;;5093784;28;20062;-54
2021/03/19 14:35:55;;;;;;;8.05;4.90;;;;;;;;;;5093559;28;20031;-54
2021/03/19 14:38:22;;;;;;;11.65;5.78;;;;;;;;;;5093649;28;20024;-55
2021/03/19 14:40:49;;;;;;;9.95;5.60;;;;;;;;;;5093528;28;20501;-59
2021/03/19 14:43:15;;;;;;;10.88;5.45;;;;;;;;;;5093629;28;20024;-56
2021/03/19 14:45:41;;;;;;;8.40;5.10;;;;;;;;;;5093613;28;20020;-58
2021/03/19 14:48:08;;;;;;;9.77;6.10;;;;;;;;;;5093655;28;20031;-59
2021/03/19 14:50:37;;;;;;;8.45;4.90;;;;;;;;;;5093416;28;20025;-59